createdAt,value
2019-05-10T00:01:17.551Z,10.67
2019-05-10T00:04:03.310Z,15.10
2019-05-10T00:06:49.218Z,13.93
2019-05-10T00:09:16.117Z,12.53
2019-05-10T00:11:49.036Z,8.60
2019-05-10T00:14:13.651Z,10.03
2019-05-10T00:16:41.103Z,10.43
2019-05-10T00:19:08.568Z,11.23
2019-05-10T00:21:35.982Z,13.07
2019-05-10T00:24:03.437Z,10.43
2019-05-10T00:26:30.899Z,16.90
2019-05-10T00:28:58.382Z,10.13
2019-05-10T00:31:25.770Z,11.70
2019-05-10T00:33:53.208Z,17.90
2019-05-10T00:36:20.664Z,12.07
2019-05-10T00:38:48.075Z,9.13
2019-05-10T00:41:15.523Z,10.83
2019-05-10T00:43:42.982Z,16.13
2019-05-10T00:46:10.423Z,10.17
2019-05-10T00:48:37.873Z,18.00
2019-05-10T00:51:05.289Z,12.50
2019-05-10T00:53:32.762Z,11.87
2019-05-10T00:56:00.184Z,12.00
2019-05-10T00:58:27.653Z,13.13
2019-05-10T01:00:55.070Z,14.10
2019-05-10T01:03:22.536Z,11.47
2019-05-10T01:05:49.968Z,13.17
2019-05-10T01:08:17.378Z,11.67
2019-05-10T01:10:44.821Z,13.17
2019-05-10T01:13:12.280Z,11.90
2019-05-10T01:15:39.684Z,15.90
2019-05-10T01:18:07.139Z,15.60
2019-05-10T01:20:34.592Z,12.90
2019-05-10T01:23:02.000Z,16.30
2019-05-10T01:25:35.366Z,12.27
2019-05-10T01:27:56.918Z,16.17
2019-05-10T01:30:24.336Z,13.87
2019-05-10T01:32:51.783Z,11.83
2019-05-10T01:35:19.191Z,14.50
2019-05-10T01:37:46.645Z,11.43
2019-05-10T01:40:14.097Z,15.77
2019-05-10T01:42:41.562Z,13.93
2019-05-10T01:45:08.986Z,14.30
2019-05-10T01:47:36.409Z,14.70
2019-05-10T01:50:06.521Z,17.33
2019-05-10T01:52:33.931Z,13.30
2019-05-10T01:55:01.380Z,15.67
2019-05-10T01:57:28.783Z,15.77
2019-05-10T01:59:56.237Z,16.43
2019-05-10T02:02:23.701Z,14.23
2019-05-10T02:04:51.174Z,18.70
2019-05-10T02:07:18.564Z,14.10
2019-05-10T02:09:46.023Z,18.60
2019-05-10T02:12:13.466Z,12.40
2019-05-10T02:14:40.887Z,15.53
2019-05-10T02:17:08.331Z,16.80
2019-05-10T02:19:35.754Z,11.63
2019-05-10T02:22:03.227Z,13.67
2019-05-10T02:24:30.679Z,14.43
2019-05-10T02:26:58.135Z,14.37
2019-05-10T02:29:25.588Z,19.97
2019-05-10T02:31:53.070Z,15.83
2019-05-10T02:34:20.493Z,11.30
2019-05-10T02:36:47.933Z,13.87
2019-05-10T02:39:15.334Z,15.30
2019-05-10T02:41:42.752Z,16.00
2019-05-10T02:44:10.216Z,15.20
2019-05-10T02:46:37.689Z,13.80
2019-05-10T02:49:05.081Z,15.73
2019-05-10T02:51:32.540Z,17.60
2019-05-10T02:53:59.997Z,18.07
2019-05-10T02:56:30.750Z,12.93
2019-05-10T02:58:54.897Z,17.37
2019-05-10T03:01:22.308Z,15.33
2019-05-10T03:03:49.775Z,16.70
2019-05-10T03:06:17.223Z,18.07
2019-05-10T03:08:47.595Z,17.83
2019-05-10T03:11:15.055Z,16.53
2019-05-10T03:13:42.471Z,18.57
2019-05-10T03:16:09.921Z,25.43
2019-05-10T03:18:37.390Z,24.60
2019-05-10T03:21:04.805Z,18.67
2019-05-10T03:23:32.250Z,18.93
2019-05-10T03:25:59.676Z,26.30
2019-05-10T03:28:27.114Z,21.13
2019-05-10T03:30:54.556Z,26.70
2019-05-10T03:33:22.014Z,20.40
2019-05-10T03:35:49.421Z,24.30
2019-05-10T03:38:16.877Z,27.63
2019-05-10T03:40:44.298Z,23.70
2019-05-10T03:43:11.734Z,29.23
2019-05-10T03:45:39.166Z,26.70
2019-05-10T03:48:06.607Z,26.50
2019-05-10T03:50:34.056Z,21.63
2019-05-10T03:53:01.486Z,21.27
2019-05-10T03:55:28.977Z,22.17
2019-05-10T03:57:56.361Z,22.03
2019-05-10T04:00:23.827Z,24.27
2019-05-10T04:02:51.233Z,26.10
2019-05-10T04:05:18.683Z,31.83
2019-05-10T04:07:46.098Z,23.30
2019-05-10T04:10:13.565Z,32.63
2019-05-10T04:12:40.983Z,27.03
2019-05-10T04:15:08.399Z,22.17
2019-05-10T04:17:35.856Z,29.17
2019-05-10T04:20:03.284Z,30.23
2019-05-10T04:22:30.722Z,30.20
2019-05-10T04:24:58.152Z,30.90
2019-05-10T04:27:32.437Z,32.00
2019-05-10T04:29:53.000Z,30.13
2019-05-10T04:32:20.462Z,28.03
2019-05-10T04:34:47.883Z,32.83
2019-05-10T04:37:15.328Z,27.37
2019-05-10T04:39:42.777Z,33.53
2019-05-10T04:42:10.242Z,27.50
2019-05-10T04:44:37.661Z,29.10
2019-05-10T04:47:05.105Z,34.73
2019-05-10T04:49:32.587Z,30.27
2019-05-10T04:52:00.014Z,25.97
2019-05-10T04:54:27.467Z,26.13
2019-05-10T04:56:54.933Z,31.73
2019-05-10T04:59:22.363Z,32.27
2019-05-10T05:01:49.875Z,27.60
2019-05-10T05:04:17.267Z,28.00
2019-05-10T05:06:44.733Z,25.80
2019-05-10T05:09:12.157Z,28.33
2019-05-10T05:11:39.646Z,28.27
2019-05-10T05:14:09.457Z,26.70
2019-05-10T05:16:34.481Z,29.23
2019-05-10T05:19:01.933Z,30.07
2019-05-10T05:21:29.388Z,27.23
2019-05-10T05:23:56.806Z,28.70
2019-05-10T05:26:24.257Z,31.33
2019-05-10T05:28:51.686Z,33.33
2019-05-10T05:31:19.141Z,32.10
2019-05-10T05:33:46.552Z,30.13
2019-05-10T05:36:14.010Z,29.90
2019-05-10T05:38:46.898Z,43.73
2019-05-10T05:41:08.928Z,33.60
2019-05-10T05:43:45.333Z,36.47
2019-05-10T05:46:03.807Z,36.13
2019-05-10T05:48:40.012Z,32.90
2019-05-10T05:50:58.700Z,39.47
2019-05-10T05:53:26.150Z,47.17
2019-05-10T05:55:53.618Z,39.27
2019-05-10T05:58:26.465Z,35.17
2019-05-10T06:00:48.515Z,41.80
2019-05-10T06:03:19.305Z,29.87
2019-05-10T06:05:43.396Z,30.80
2019-05-10T06:08:23.080Z,39.17
2019-05-10T06:10:38.325Z,41.47
2019-05-10T06:13:05.750Z,38.37
2019-05-10T06:15:33.233Z,36.90
2019-05-10T06:18:03.829Z,39.40
2019-05-10T06:20:28.123Z,34.57
2019-05-10T06:23:06.374Z,30.23
2019-05-10T06:25:38.071Z,33.37
2019-05-10T06:27:50.435Z,34.50
2019-05-10T06:30:17.860Z,30.67
2019-05-10T06:32:45.329Z,33.67
2019-05-10T06:35:14.293Z,35.80
2019-05-10T06:37:40.180Z,35.77
2019-05-10T06:40:07.653Z,31.93
2019-05-10T06:42:36.258Z,28.73
2019-05-10T06:45:04.862Z,34.90
2019-05-10T06:47:29.989Z,34.87
2019-05-10T06:49:57.410Z,33.57
2019-05-10T06:52:28.016Z,32.93
2019-05-10T06:54:52.309Z,36.40
2019-05-10T06:57:19.780Z,39.37
2019-05-10T06:59:47.190Z,33.07
2019-05-10T07:02:14.643Z,33.80
2019-05-10T07:04:42.068Z,32.73
2019-05-10T07:07:18.335Z,35.10
2019-05-10T07:10:01.556Z,33.13
2019-05-10T07:12:09.275Z,32.97
2019-05-10T07:14:31.903Z,35.60
2019-05-10T07:17:02.522Z,40.67
2019-05-10T07:19:28.859Z,36.53
2019-05-10T07:21:54.223Z,41.73
2019-05-10T07:24:25.028Z,37.60
2019-05-10T07:26:49.103Z,37.40
2019-05-10T07:29:28.929Z,40.70
2019-05-10T07:31:44.006Z,33.37
2019-05-10T07:34:15.572Z,35.67
2019-05-10T07:36:38.884Z,35.67
2019-05-10T07:39:08.395Z,27.50
2019-05-10T07:41:33.720Z,21.93
2019-05-10T07:44:08.206Z,22.17
2019-05-10T07:46:28.604Z,23.57
2019-05-10T07:48:56.052Z,21.53
2019-05-10T07:51:28.707Z,18.83
2019-05-10T07:53:50.913Z,18.97
2019-05-10T07:56:18.321Z,19.27
2019-05-10T07:58:45.761Z,18.30
2019-05-10T08:01:13.228Z,21.90
2019-05-10T08:03:47.879Z,18.63
2019-05-10T08:06:08.425Z,14.73
2019-05-10T08:08:35.542Z,18.03
2019-05-10T08:11:02.993Z,16.37
2019-05-10T08:13:30.402Z,17.67
2019-05-10T08:15:59.458Z,13.43
2019-05-10T08:18:25.582Z,16.37
2019-05-10T08:20:58.266Z,16.57
2019-05-10T08:23:23.915Z,16.87
2019-05-10T08:25:47.590Z,19.70
2019-05-10T08:28:15.073Z,20.20
2019-05-10T08:30:51.176Z,21.50
2019-05-10T08:33:12.018Z,18.77
2019-05-10T08:35:38.933Z,18.20
2019-05-10T08:38:04.808Z,20.30
2019-05-10T08:40:37.406Z,19.97
2019-05-10T08:43:06.547Z,19.27
2019-05-10T08:45:27.096Z,19.03
2019-05-10T08:48:00.764Z,21.33
2019-05-10T08:50:42.605Z,18.93
2019-05-10T08:52:49.771Z,13.00
2019-05-10T08:55:17.200Z,14.83
2019-05-10T08:57:49.137Z,14.30
2019-05-10T09:00:12.983Z,12.80
2019-05-10T09:02:39.515Z,12.77
2019-05-10T09:05:06.986Z,16.23
2019-05-10T09:07:38.798Z,11.17
2019-05-10T09:10:02.382Z,12.07
2019-05-10T09:12:29.720Z,12.10
2019-05-10T09:15:05.643Z,17.90
2019-05-10T09:17:28.275Z,9.20
2019-05-10T09:19:51.906Z,9.47
2019-05-10T09:22:26.018Z,10.00
2019-05-10T09:24:48.622Z,17.57
2019-05-10T09:27:13.891Z,14.67
2019-05-10T09:29:43.045Z,9.90
2019-05-10T09:32:08.754Z,8.03
2019-05-10T09:34:36.176Z,8.50
2019-05-10T09:37:08.130Z,11.70
2019-05-10T09:39:32.097Z,9.17
2019-05-10T09:41:58.485Z,8.17
2019-05-10T09:44:25.893Z,8.73
2019-05-10T09:46:53.377Z,8.60
2019-05-10T09:49:23.008Z,9.47
2019-05-10T09:51:48.269Z,9.60
2019-05-10T09:54:18.124Z,9.57
2019-05-10T09:56:44.979Z,9.80
2019-05-10T09:59:10.574Z,12.23
2019-05-10T10:01:38.027Z,8.27
2019-05-10T10:04:05.429Z,9.30
2019-05-10T10:06:32.883Z,10.60
2019-05-10T10:09:00.901Z,9.90
2019-05-10T10:11:27.931Z,8.93
2019-05-10T10:13:59.291Z,7.20
2019-05-10T10:16:22.629Z,8.17
2019-05-10T10:18:50.031Z,9.13
2019-05-10T10:21:18.954Z,8.30
2019-05-10T10:23:44.890Z,8.53
2019-05-10T10:26:17.329Z,10.60
2019-05-10T10:28:39.931Z,9.27
2019-05-10T10:31:08.493Z,7.83
2019-05-10T10:33:34.645Z,9.33
2019-05-10T10:36:07.737Z,8.77
2019-05-10T10:38:31.345Z,7.23
2019-05-10T10:40:57.706Z,7.13
2019-05-10T10:43:27.098Z,7.73
2019-05-10T10:45:52.111Z,6.73
2019-05-10T10:48:19.515Z,5.50
2019-05-10T10:50:51.232Z,8.87
2019-05-10T10:53:14.379Z,6.53
2019-05-10T10:55:48.436Z,5.47
2019-05-10T10:58:09.230Z,5.40
2019-05-10T11:00:38.982Z,6.20
2019-05-10T11:03:04.445Z,5.93
2019-05-10T11:05:32.009Z,4.90
2019-05-10T11:08:01.119Z,5.10
2019-05-10T11:10:31.191Z,3.63
2019-05-10T11:13:02.951Z,3.87
2019-05-10T11:15:28.216Z,7.63
2019-05-10T11:17:51.605Z,6.20
2019-05-10T11:20:21.518Z,3.70
2019-05-10T11:22:49.667Z,4.90
2019-05-10T11:25:13.926Z,5.00
2019-05-10T11:27:41.663Z,5.13
2019-05-10T11:30:08.812Z,6.10
2019-05-10T11:32:36.268Z,4.93
2019-05-10T11:35:05.571Z,5.80
2019-05-10T11:37:36.000Z,5.37
2019-05-10T11:39:58.575Z,5.10
2019-05-10T11:42:25.984Z,5.73
2019-05-10T11:44:54.726Z,6.43
2019-05-10T11:47:26.457Z,5.73
2019-05-10T11:49:50.739Z,4.13
2019-05-10T11:52:15.772Z,5.20
2019-05-10T11:54:43.180Z,4.43
2019-05-10T11:59:39.176Z,7.40
2019-05-10T12:02:09.454Z,6.37
2019-05-10T12:04:38.841Z,7.23
2019-05-10T12:07:02.774Z,5.67
2019-05-10T12:09:27.806Z,6.40
2019-05-10T12:11:56.633Z,7.90
2019-05-10T12:14:22.718Z,10.70
2019-05-10T12:16:54.197Z,8.60
2019-05-10T12:19:21.121Z,3.87
2019-05-10T12:21:45.018Z,5.50
2019-05-10T12:26:00.228Z,4.60
2019-05-10T12:26:29.497Z,5.10
2019-05-10T12:29:11.966Z,5.97
2019-05-10T12:31:34.804Z,7.83
2019-05-10T12:34:09.098Z,7.50
2019-05-10T12:36:31.426Z,5.13
2019-05-10T12:38:58.974Z,5.20
2019-05-10T12:41:24.556Z,6.43
2019-05-10T12:44:02.554Z,8.13
2019-05-10T12:46:20.667Z,5.40
2019-05-10T12:48:46.870Z,6.40
2019-05-10T12:51:16.283Z,6.63
2019-05-10T12:53:47.530Z,4.10
2019-05-10T12:56:09.231Z,3.87
2019-05-10T12:58:36.687Z,4.97
2019-05-10T13:01:04.103Z,3.37
2019-05-10T13:03:33.700Z,3.10
2019-05-10T13:05:58.970Z,5.20
2019-05-10T13:08:26.407Z,4.53
2019-05-10T13:10:53.824Z,3.57
2019-05-10T13:13:23.735Z,3.43
2019-05-10T13:15:48.690Z,4.10
2019-05-10T13:18:16.141Z,5.70
2019-05-10T13:20:43.545Z,3.17
2019-05-10T13:23:16.130Z,4.90
2019-05-10T13:25:38.407Z,4.53
2019-05-10T13:28:11.269Z,4.27
2019-05-10T13:30:33.291Z,3.20
2019-05-10T13:33:00.720Z,8.33
2019-05-10T13:35:28.174Z,10.87
2019-05-10T13:37:56.932Z,11.43
2019-05-10T13:40:23.293Z,12.07
2019-05-10T13:42:50.754Z,13.63
2019-05-10T13:45:18.178Z,12.33
2019-05-10T13:47:45.630Z,11.73
2019-05-10T13:50:13.057Z,10.43
2019-05-10T13:52:41.379Z,10.23
2019-05-10T13:55:08.227Z,11.73
2019-05-10T13:57:35.647Z,10.57
2019-05-10T14:00:03.141Z,10.90
2019-05-10T14:02:34.306Z,10.17
2019-05-10T14:04:57.966Z,10.07
2019-05-10T14:07:25.437Z,11.50
2019-05-10T14:09:52.901Z,11.27
2019-05-10T14:12:23.296Z,13.33
2019-05-10T14:14:47.763Z,13.07
2019-05-10T14:17:15.203Z,11.77
2019-05-10T14:19:42.651Z,11.13
2019-05-10T14:22:10.060Z,10.17
2019-05-10T14:24:37.528Z,9.60
2019-05-10T14:27:05.003Z,12.40
2019-05-10T14:29:36.576Z,13.80
2019-05-10T14:34:37.942Z,12.93
2019-05-10T14:37:00.428Z,11.77
2019-05-10T14:39:27.873Z,11.03
2019-05-10T14:41:55.294Z,11.15
2019-05-10T14:44:22.722Z,10.67
2019-05-10T14:46:50.153Z,10.73
2019-05-10T14:49:17.606Z,9.43
2019-05-10T14:51:58.473Z,8.97
2019-05-10T14:54:12.482Z,8.73
2019-05-10T14:56:39.894Z,7.90
2019-05-10T14:59:07.378Z,9.10
2019-05-10T15:01:42.108Z,12.13
2019-05-10T15:04:02.203Z,8.23
2019-05-10T15:06:30.895Z,8.20
2019-05-10T15:08:57.044Z,9.40
2019-05-10T15:11:26.382Z,10.77
2019-05-10T15:13:51.955Z,9.50
2019-05-10T15:16:27.661Z,8.47
2019-05-10T15:18:46.847Z,11.37
2019-05-10T15:21:14.253Z,8.33
2019-05-10T15:23:41.713Z,8.80
2019-05-10T15:26:11.717Z,10.20
2019-05-10T15:28:40.342Z,9.37
2019-05-10T15:31:04.027Z,11.27
2019-05-10T15:33:31.432Z,10.77
2019-05-10T15:35:58.874Z,10.73
2019-05-10T15:38:26.308Z,10.77
2019-05-10T15:40:53.771Z,12.70
2019-05-10T15:43:21.197Z,12.80
2019-05-10T15:45:52.683Z,12.80
2019-05-10T15:48:16.064Z,14.40
2019-05-10T15:50:43.530Z,11.37
2019-05-10T15:53:11.019Z,11.53
2019-05-10T15:55:38.420Z,12.23
2019-05-10T15:58:05.842Z,14.27
2019-05-10T16:00:39.096Z,11.60
2019-05-10T16:03:00.729Z,12.63
2019-05-10T16:05:42.401Z,11.93
2019-05-10T16:07:55.597Z,14.20
2019-05-10T16:10:28.310Z,13.23
2019-05-10T16:12:50.480Z,14.10
2019-05-10T16:15:20.103Z,16.43
2019-05-10T16:17:45.373Z,15.37
2019-05-10T16:20:12.802Z,14.33
2019-05-10T16:22:40.257Z,13.97
2019-05-10T16:25:07.690Z,15.30
2019-05-10T16:27:41.616Z,13.87
2019-05-10T16:30:02.593Z,16.83
2019-05-10T16:32:34.468Z,17.00
2019-05-10T16:34:57.492Z,15.17
2019-05-10T16:37:24.900Z,13.20
2019-05-10T16:39:52.353Z,14.57
2019-05-10T16:42:19.761Z,14.90
2019-05-10T16:44:47.207Z,15.33
2019-05-10T16:47:14.613Z,14.17
2019-05-10T16:49:42.076Z,15.27
2019-05-10T16:52:09.505Z,14.93
2019-05-10T16:54:36.932Z,15.43
2019-05-10T16:57:04.388Z,16.10
2019-05-10T16:59:34.876Z,15.77
2019-05-10T17:02:04.646Z,14.20
2019-05-10T17:04:31.931Z,15.87
2019-05-10T17:06:56.613Z,15.70
2019-05-10T17:09:21.613Z,15.37
2019-05-10T17:11:49.078Z,13.87
2019-05-10T17:14:18.014Z,16.73
2019-05-10T17:16:43.957Z,14.20
2019-05-10T17:19:11.413Z,15.23
2019-05-10T17:21:38.846Z,15.00
2019-05-10T17:24:06.291Z,14.20
2019-05-10T17:26:33.771Z,15.73
2019-05-10T17:29:01.213Z,16.60
2019-05-10T17:31:28.657Z,14.73
2019-05-10T17:33:56.084Z,14.67
2019-05-10T17:36:23.521Z,14.40
2019-05-10T17:38:53.746Z,15.23
2019-05-10T17:41:19.507Z,14.30
2019-05-10T17:43:45.864Z,15.17
2019-05-10T17:46:18.850Z,13.60
2019-05-10T17:48:46.803Z,13.23
2019-05-10T17:51:08.187Z,14.67
2019-05-10T17:53:35.613Z,14.50
2019-05-10T17:56:03.316Z,13.07
2019-05-10T17:58:33.740Z,12.80
2019-05-10T18:00:57.970Z,12.43
2019-05-10T18:03:25.407Z,14.00
2019-05-10T18:05:53.468Z,13.50
2019-05-10T18:08:20.289Z,12.63
2019-05-10T18:10:47.785Z,14.63
2019-05-10T18:13:15.164Z,13.63
2019-05-10T18:15:42.625Z,15.30
2019-05-10T18:18:10.041Z,14.40
2019-05-10T18:20:42.096Z,13.93
2019-05-10T18:23:04.915Z,14.20
2019-05-10T18:25:32.352Z,14.83
2019-05-10T18:27:59.770Z,14.53
2019-05-10T18:30:27.231Z,14.43
2019-05-10T18:32:54.662Z,14.73
2019-05-10T18:35:22.122Z,14.30
2019-05-10T18:37:53.687Z,15.73
2019-05-10T18:40:16.977Z,14.00
2019-05-10T18:42:44.463Z,14.53
2019-05-10T18:45:11.919Z,14.10
2019-05-10T18:47:39.368Z,13.93
2019-05-10T18:50:06.829Z,15.57
2019-05-10T18:52:34.238Z,13.87
2019-05-10T18:55:01.664Z,14.60
2019-05-10T18:57:29.113Z,14.73
2019-05-10T18:59:56.535Z,15.37
2019-05-10T19:02:23.998Z,16.63
2019-05-10T19:04:52.698Z,14.40
2019-05-10T19:07:18.900Z,15.93
2019-05-10T19:09:46.360Z,14.87
2019-05-10T19:12:18.716Z,15.00
2019-05-10T19:14:41.258Z,17.40
2019-05-10T19:17:09.318Z,18.07
2019-05-10T19:19:41.524Z,16.17
2019-05-10T19:22:08.837Z,15.63
2019-05-10T19:24:32.249Z,16.90
2019-05-10T19:27:01.563Z,16.53
2019-05-10T19:29:27.532Z,15.93
2019-05-10T19:31:53.379Z,17.27
2019-05-10T19:34:20.812Z,16.57
2019-05-10T19:36:48.301Z,16.37
2019-05-10T19:39:15.725Z,15.67
2019-05-10T19:41:43.193Z,14.83
2019-05-10T19:44:10.653Z,16.00
2019-05-10T19:46:39.495Z,16.77
2019-05-10T19:49:07.696Z,15.90
2019-05-10T19:51:32.943Z,17.63
2019-05-10T19:54:00.406Z,17.70
2019-05-10T19:56:30.026Z,15.97
2019-05-10T19:58:55.277Z,15.97
2019-05-10T20:01:22.705Z,15.20
2019-05-10T20:03:50.177Z,18.50
2019-05-10T20:06:17.593Z,18.33
2019-05-10T20:08:45.040Z,17.30
2019-05-10T20:11:12.492Z,19.43
2019-05-10T20:13:39.913Z,18.07
2019-05-10T20:16:07.376Z,16.07
2019-05-10T20:18:34.792Z,17.33
2019-05-10T20:21:02.271Z,14.93
2019-05-10T20:23:29.717Z,17.67
2019-05-10T20:25:59.276Z,17.63
2019-05-10T20:28:24.649Z,17.33
2019-05-10T20:30:52.069Z,19.63
2019-05-10T20:33:19.529Z,18.73
2019-05-10T20:35:46.959Z,19.53
2019-05-10T20:38:14.421Z,17.63
2019-05-10T20:40:41.834Z,18.27
2019-05-10T20:43:09.284Z,18.57
2019-05-10T20:45:36.703Z,19.00
2019-05-10T20:48:04.342Z,18.30
2019-05-10T20:50:31.621Z,18.70
2019-05-10T20:52:59.088Z,18.03
2019-05-10T20:55:26.543Z,19.13
2019-05-10T20:57:53.978Z,19.70
2019-05-10T21:00:23.921Z,18.73
2019-05-10T21:02:48.897Z,19.80
2019-05-10T21:05:16.368Z,22.97
2019-05-10T21:07:43.781Z,20.97
2019-05-10T21:10:11.247Z,19.90
2019-05-10T21:12:38.660Z,21.80
2019-05-10T21:15:06.133Z,21.03
2019-05-10T21:17:33.591Z,22.37
2019-05-10T21:20:07.324Z,22.53
2019-05-10T21:22:34.741Z,22.07
2019-05-10T21:25:02.217Z,21.20
2019-05-10T21:27:29.640Z,19.60
2019-05-10T21:29:57.119Z,19.97
2019-05-10T21:32:24.553Z,18.40
2019-05-10T21:34:51.965Z,24.77
2019-05-10T21:37:19.456Z,21.40
2019-05-10T21:39:46.925Z,22.13
2019-05-10T21:42:14.376Z,21.73
2019-05-10T21:44:41.799Z,22.83
2019-05-10T21:47:09.253Z,20.87
2019-05-10T21:49:36.715Z,24.20
2019-05-10T21:52:04.180Z,24.47
2019-05-10T21:54:31.651Z,22.43
2019-05-10T21:56:59.073Z,24.13
2019-05-10T21:59:26.537Z,24.50
2019-05-10T22:01:53.997Z,24.13
2019-05-10T22:04:21.416Z,26.37
2019-05-10T22:06:48.836Z,23.30
2019-05-10T22:09:16.340Z,26.20
2019-05-10T22:11:43.743Z,28.60
2019-05-10T22:14:11.192Z,30.33
2019-05-10T22:16:38.627Z,29.27
2019-05-10T22:19:06.079Z,26.43
2019-05-10T22:21:33.500Z,28.13
2019-05-10T22:24:01.004Z,26.27
2019-05-10T22:26:28.399Z,27.90
2019-05-10T22:28:55.861Z,28.00
2019-05-10T22:31:23.346Z,24.13
2019-05-10T22:33:50.799Z,26.13
2019-05-10T22:36:18.262Z,24.67
2019-05-10T22:38:45.722Z,23.80
2019-05-10T22:41:13.165Z,25.73
2019-05-10T22:43:40.615Z,27.67
2019-05-10T22:46:08.039Z,24.90
2019-05-10T22:48:35.497Z,25.93
2019-05-10T22:51:02.907Z,26.07
2019-05-10T22:53:30.356Z,23.30
2019-05-10T22:55:57.762Z,23.77
2019-05-10T22:58:25.224Z,25.53
2019-05-10T23:00:52.669Z,25.77
2019-05-10T23:03:24.177Z,25.57
2019-05-10T23:05:47.546Z,27.07
2019-05-10T23:08:14.975Z,25.83
2019-05-10T23:10:42.469Z,25.93
2019-05-10T23:13:09.876Z,25.57
2019-05-10T23:15:37.281Z,23.70
2019-05-10T23:18:04.779Z,27.10
2019-05-10T23:20:32.199Z,26.97
2019-05-10T23:22:59.655Z,26.30
2019-05-10T23:25:27.077Z,26.30
2019-05-10T23:27:54.548Z,28.27
2019-05-10T23:30:21.947Z,26.20
2019-05-10T23:32:49.407Z,30.87
2019-05-10T23:35:16.843Z,29.13
2019-05-10T23:37:44.294Z,30.53
2019-05-10T23:40:11.723Z,31.17
2019-05-10T23:42:39.182Z,30.23
2019-05-10T23:45:06.597Z,31.57
2019-05-10T23:47:34.039Z,31.57
2019-05-10T23:50:01.449Z,34.57
2019-05-10T23:52:28.905Z,32.80
2019-05-10T23:54:56.327Z,29.30
2019-05-10T23:57:23.777Z,30.60
2019-05-10T23:59:51.182Z,31.80
